Time;durP1;ratioP1;P1;durP2;ratioP2;P2;SDS_P1;SDS_P2;PMS_P1;PMS_P2;Temp;Humidity;BMP_temperature;BMP_pressure;BME280_temperature;BME280_humidity;BME280_pressure;Samples;Min_cycle;Max_cycle;Signal;HPM_P1;HPM_P2
2023/05/25 00:01:35;;;;;;;7.03;2.08;;;;;;;9.75;100.00;99175.94;5050371;28;20025;-75
2023/05/25 00:04:02;;;;;;;6.80;2.33;;;;;;;9.68;100.00;99179.59;5051905;28;20429;-75
2023/05/25 00:06:28;;;;;;;13.07;2.47;;;;;;;9.56;100.00;99177.38;5048787;28;21623;-75
2023/05/25 00:08:56;;;;;;;9.38;2.35;;;;;;;9.51;100.00;99176.25;5049401;28;20021;-75
2023/05/25 00:11:22;;;;;;;10.57;2.15;;;;;;;9.45;100.00;99183.22;5043265;28;20025;-75
2023/05/25 00:13:48;;;;;;;9.80;2.10;;;;;;;9.29;100.00;99173.47;5053032;28;20025;-75
2023/05/25 00:16:14;;;;;;;8.68;2.17;;;;;;;9.27;100.00;99194.41;5042941;28;20021;-75
2023/05/25 00:18:39;;;;;;;8.57;2.05;;;;;;;9.17;100.00;99183.06;5042779;28;20024;-76
2023/05/25 00:21:06;;;;;;;9.05;2.63;;;;;;;9.27;100.00;99183.59;5059271;28;20071;-75
2023/05/25 00:23:32;;;;;;;9.60;2.25;;;;;;;9.17;100.00;99172.25;5050579;28;20498;-75
2023/05/25 00:25:57;;;;;;;11.45;2.22;;;;;;;9.31;100.00;99173.28;5052789;28;20074;-75
2023/05/25 00:28:23;;;;;;;8.65;2.15;;;;;;;9.29;100.00;99169.94;5051740;28;20471;-75
2023/05/25 00:30:48;;;;;;;8.45;2.10;;;;;;;9.24;100.00;99175.88;5048746;28;20032;-75
2023/05/25 00:33:14;;;;;;;14.07;2.80;;;;;;;9.19;100.00;99171.03;5055371;28;20450;-75
2023/05/25 00:35:41;;;;;;;8.25;2.30;;;;;;;9.10;100.00;99160.53;5055491;28;20379;-75
2023/05/25 00:38:17;;;;;;;12.73;3.47;;;;;;;9.08;100.00;99160.69;5053880;28;20036;-75
2023/05/25 00:40:43;;;;;;;9.68;1.92;;;;;;;9.10;100.00;99160.53;5054943;28;20044;-75
2023/05/25 00:43:09;;;;;;;8.07;2.38;;;;;;;9.08;100.00;99154.47;5052608;28;20102;-75
2023/05/25 00:45:35;;;;;;;7.03;2.00;;;;;;;9.14;100.00;99161.81;5055433;28;20032;-75
2023/05/25 00:48:00;;;;;;;13.27;2.33;;;;;;;9.44;100.00;99174.28;5059515;28;20025;-75
2023/05/25 00:50:39;;;;;;;10.00;2.60;;;;;;;9.43;100.00;99164.53;5053593;28;20548;-75
2023/05/25 00:53:05;;;;;;;10.10;2.25;;;;;;;9.68;100.00;99163.38;5052579;28;20090;-75
2023/05/25 00:55:36;;;;;;;7.80;2.58;;;;;;;9.70;100.00;99169.44;5059160;28;20386;-76
2023/05/25 00:58:04;;;;;;;6.32;2.50;;;;;;;9.72;100.00;99167.38;5050773;28;20025;-76
2023/05/25 01:00:31;;;;;;;10.50;2.13;;;;;;;9.61;100.00;99157.88;5052326;28;20026;-75
2023/05/25 01:02:58;;;;;;;8.63;2.20;;;;;;;9.64;100.00;99173.72;5055733;28;20437;-75
2023/05/25 01:05:27;;;;;;;10.15;3.08;;;;;;;9.64;100.00;99173.72;5054135;28;20032;-75
2023/05/25 01:07:53;;;;;;;;;;;;;;;9.57;100.00;99179.03;5054487;28;20086;-75
2023/05/25 01:10:21;;;;;;;10.60;2.70;;;;;;;9.59;100.00;99165.34;5052357;28;19920;-75
2023/05/25 01:12:49;;;;;;;9.20;2.15;;;;;;;9.53;100.00;99158.00;5052357;28;20477;-75
2023/05/25 01:15:15;;;;;;;7.97;2.07;;;;;;;9.54;100.00;99160.50;5040956;28;20026;-75
2023/05/25 01:17:41;;;;;;;13.70;2.50;;;;;;;9.44;100.00;99150.00;5055594;28;20271;-75
2023/05/25 01:20:06;;;;;;;7.55;2.10;;;;;;;9.59;100.00;99160.78;5056116;28;20029;-75
2023/05/25 01:22:54;;;;;;;8.15;2.65;;;;;;;9.55;100.00;99155.94;5048908;28;20029;-75
2023/05/25 01:25:30;;;;;;;6.90;2.40;;;;;;;9.57;100.00;99157.44;5050009;28;20436;-75
2023/05/25 01:28:06;;;;;;;11.05;2.17;;;;;;;9.36;100.00;99152.78;5049290;28;20031;-75
2023/05/25 01:30:35;;;;;;;13.43;2.60;;;;;;;9.14;100.00;99156.41;5048235;28;20028;-75
2023/05/25 01:33:01;;;;;;;8.52;2.15;;;;;;;9.08;100.00;99151.75;5055512;28;20086;-75
2023/05/25 01:35:27;;;;;;;8.50;3.15;;;;;;;8.92;100.00;99158.16;5055297;28;20029;-75
2023/05/25 01:37:52;;;;;;;7.32;2.30;;;;;;;8.77;100.00;99158.13;5059397;28;20091;-75
2023/05/25 01:40:18;;;;;;;10.15;2.97;;;;;;;8.59;100.00;99165.72;5051657;28;20021;-75
2023/05/25 01:42:43;;;;;;;14.90;3.00;;;;;;;8.56;100.00;99175.00;5053025;28;20030;-75
2023/05/25 01:45:10;;;;;;;8.90;2.20;;;;;;;8.44;100.00;99165.69;5054664;28;20025;-75
2023/05/25 01:47:45;;;;;;;14.10;2.50;;;;;;;8.35;100.00;99171.09;5054799;28;20162;-75
2023/05/25 01:50:21;;;;;;;10.18;2.97;;;;;;;8.33;100.00;99175.84;5050970;28;20048;-75
2023/05/25 01:52:59;;;;;;;12.48;2.45;;;;;;;8.31;100.00;99166.25;5054294;28;20120;-75
2023/05/25 01:55:27;;;;;;;7.90;1.77;;;;;;;8.19;100.00;99168.50;5053782;28;20031;-75
2023/05/25 01:57:57;;;;;;;13.50;2.72;;;;;;;8.20;100.00;99170.22;5042511;28;20034;-75
2023/05/25 02:00:30;;;;;;;6.40;2.72;;;;;;;8.04;100.00;99167.59;5044002;28;20056;-75
2023/05/25 02:02:56;;;;;;;7.55;2.35;;;;;;;8.13;100.00;99174.63;5054185;28;20420;-75
2023/05/25 02:05:21;;;;;;;10.18;2.60;;;;;;;8.10;100.00;99164.22;5054767;28;20024;-75
2023/05/25 02:07:47;;;;;;;8.73;2.22;;;;;;;7.96;100.00;99162.25;5053319;28;20084;-75
2023/05/25 02:10:12;;;;;;;8.07;2.47;;;;;;;7.79;100.00;99166.91;5048922;28;20032;-75
2023/05/25 02:12:37;;;;;;;8.98;2.55;;;;;;;7.69;100.00;99170.66;5053932;28;20031;-75
2023/05/25 02:15:03;;;;;;;10.65;3.25;;;;;;;7.59;100.00;99164.66;5054953;28;20463;-75
2023/05/25 02:17:29;;;;;;;9.77;2.38;;;;;;;7.55;100.00;99165.19;5054410;28;20021;-75
2023/05/25 02:19:54;;;;;;;15.43;3.15;;;;;;;7.55;100.00;99167.88;5051666;28;20021;-76
2023/05/25 02:22:20;;;;;;;9.30;2.95;;;;;;;7.46;100.00;99156.28;5053983;28;20040;-75
2023/05/25 02:24:46;;;;;;;9.10;2.78;;;;;;;7.50;100.00;99151.41;5052958;28;20025;-75
2023/05/25 02:27:12;;;;;;;8.98;3.13;;;;;;;7.44;100.00;99134.09;5054221;28;20031;-75
2023/05/25 02:29:37;;;;;;;8.07;2.55;;;;;;;7.65;100.00;99155.03;5049924;28;20021;-75
2023/05/25 02:32:03;;;;;;;11.80;3.15;;;;;;;7.65;100.00;99146.94;5052465;28;20032;-75
2023/05/25 02:34:29;;;;;;;10.20;2.53;;;;;;;7.64;100.00;99162.25;5055712;28;20025;-75
2023/05/25 02:36:54;;;;;;;12.65;2.72;;;;;;;7.57;100.00;99145.16;5053370;28;20024;-75
2023/05/25 02:39:20;;;;;;;7.68;2.60;;;;;;;7.54;100.00;99152.72;5052014;28;20479;-75
2023/05/25 02:41:45;;;;;;;14.63;3.05;;;;;;;7.41;100.00;99146.06;5049436;28;20024;-75
2023/05/25 02:44:10;;;;;;;8.52;2.63;;;;;;;7.41;100.00;99154.16;5053998;28;20029;-75
2023/05/25 02:46:36;;;;;;;10.23;3.10;;;;;;;7.27;100.00;99151.34;5046575;28;20040;-75
2023/05/25 02:49:01;;;;;;;8.60;2.88;;;;;;;7.18;100.00;99148.66;5051945;28;20115;-75
2023/05/25 02:51:27;;;;;;;11.52;3.30;;;;;;;7.23;100.00;99172.34;5049964;28;20035;-75
2023/05/25 02:53:52;;;;;;;7.97;3.20;;;;;;;7.21;100.00;99163.63;5047586;28;20109;-75
2023/05/25 02:56:18;;;;;;;10.82;3.00;;;;;;;7.13;100.00;99169.88;5052730;28;20025;-75
2023/05/25 02:58:43;;;;;;;12.13;3.00;;;;;;;7.09;100.00;99160.44;5045078;28;20036;-75
2023/05/25 03:01:09;;;;;;;12.85;3.28;;;;;;;7.19;100.00;99171.88;5053016;28;20021;-75
2023/05/25 03:03:36;;;;;;;6.47;2.55;;;;;;;7.13;100.00;99183.31;5053509;28;20028;-75
2023/05/25 03:06:02;;;;;;;12.02;3.22;;;;;;;7.12;100.00;99170.03;5053512;28;20029;-75
2023/05/25 03:08:28;;;;;;;9.85;3.17;;;;;;;7.06;100.00;99171.56;5052268;28;20036;-75
2023/05/25 03:10:53;;;;;;;14.27;3.53;;;;;;;7.15;100.00;99177.75;5047711;28;20410;-75
2023/05/25 03:13:19;;;;;;;14.68;4.15;;;;;;;7.14;100.00;99174.22;5058621;28;20698;-75
2023/05/25 03:15:44;;;;;;;8.55;3.20;;;;;;;7.07;100.00;99173.22;5051698;28;20032;-75
2023/05/25 03:18:09;;;;;;;9.85;3.65;;;;;;;7.20;100.00;99180.78;5053726;28;20051;-75
2023/05/25 03:20:35;;;;;;;10.55;3.55;;;;;;;7.06;100.00;99185.00;5053236;28;20032;-75
2023/05/25 03:23:01;;;;;;;14.93;3.17;;;;;;;6.98;100.00;99167.03;5056484;28;20051;-75
2023/05/25 03:25:26;;;;;;;12.07;3.70;;;;;;;6.93;100.00;99188.22;5054238;28;20028;-75
2023/05/25 03:27:52;;;;;;;11.70;3.10;;;;;;;6.85;100.00;99190.09;5058171;28;20036;-75
2023/05/25 03:30:21;;;;;;;7.80;3.30;;;;;;;6.96;100.00;99171.75;5090544;22;20038;-77
2023/05/25 03:32:46;;;;;;;9.70;2.72;;;;;;;6.85;100.00;99182.03;5010904;28;20511;-76
2023/05/25 03:35:12;;;;;;;11.95;2.97;;;;;;;6.75;100.00;99153.47;5008284;28;20026;-77
2023/05/25 03:37:37;;;;;;;10.73;3.83;;;;;;;7.08;100.00;99188.38;5009320;28;20033;-78
2023/05/25 03:40:03;;;;;;;11.23;3.45;;;;;;;7.22;100.00;99201.13;5021259;28;20498;-78
2023/05/25 03:42:29;;;;;;;14.23;4.03;;;;;;;6.98;100.00;99152.75;5013093;28;20037;-76
2023/05/25 03:44:54;;;;;;;11.00;3.03;;;;;;;7.05;100.00;99175.28;5011179;28;20038;-76
2023/05/25 03:47:19;;;;;;;8.55;2.97;;;;;;;7.19;100.00;99195.25;5003874;28;20033;-78
2023/05/25 03:49:45;;;;;;;10.52;3.20;;;;;;;7.08;100.00;99183.00;5008770;28;20033;-75
2023/05/25 03:52:10;;;;;;;15.45;4.07;;;;;;;7.10;100.00;99188.19;5009151;28;20041;-74
2023/05/25 03:54:35;;;;;;;12.20;3.30;;;;;;;7.05;100.00;99191.41;5003396;28;20386;-76
2023/05/25 03:57:02;;;;;;;13.65;3.33;;;;;;;7.06;100.00;99185.00;5009050;28;20072;-75
2023/05/25 03:59:28;;;;;;;7.72;3.17;;;;;;;7.07;100.00;99200.13;5011357;28;20145;-82
2023/05/25 04:01:53;;;;;;;9.57;3.30;;;;;;;6.95;100.00;99178.16;5010220;28;20029;-81
2023/05/25 04:04:19;;;;;;;10.05;3.25;;;;;;;7.13;100.00;99198.63;5004065;28;20041;-79
2023/05/25 04:06:47;;;;;;;7.38;2.72;;;;;;;7.22;100.00;99213.72;5010476;28;20017;-76
2023/05/25 04:09:13;;;;;;;16.77;4.70;;;;;;;7.21;100.00;99196.75;5010120;28;20077;-77
2023/05/25 04:11:38;;;;;;;9.20;3.15;;;;;;;7.28;100.00;99196.88;5010257;28;20050;-78
2023/05/25 04:14:04;;;;;;;11.63;3.47;;;;;;;7.39;100.00;99207.31;5010465;28;20432;-75
2023/05/25 04:16:29;;;;;;;11.30;4.03;;;;;;;7.36;100.00;99182.56;5009133;28;20034;-76
2023/05/25 04:18:55;;;;;;;12.25;4.30;;;;;;;7.36;100.00;99172.66;5008870;28;20026;-75
2023/05/25 04:21:20;;;;;;;14.32;3.65;;;;;;;7.61;100.00;99192.25;5001058;28;20022;-76
2023/05/25 04:23:46;;;;;;;9.48;3.55;;;;;;;7.74;100.00;99215.91;5010344;28;20033;-79
2023/05/25 04:26:11;;;;;;;14.60;4.47;;;;;;;7.85;100.00;99206.63;5015110;28;20038;-79
2023/05/25 04:28:36;;;;;;;12.80;4.13;;;;;;;8.02;100.00;99199.28;5004982;28;20402;-77
2023/05/25 04:31:02;;;;;;;10.57;3.30;;;;;;;8.20;100.00;99207.94;5008741;28;20029;-79
2023/05/25 04:33:28;;;;;;;13.65;3.22;;;;;;;8.39;100.00;99211.19;5010670;28;20054;-77
2023/05/25 04:35:57;;;;;;;8.35;3.22;;;;;;;8.39;100.00;99187.78;5004897;28;20105;-81
2023/05/25 04:38:23;;;;;;;10.98;3.67;;;;;;;8.58;100.00;99191.84;5014111;28;20109;-78
2023/05/25 04:40:49;;;;;;;16.10;3.92;;;;;;;8.82;100.00;99209.69;5011864;28;20117;-76
2023/05/25 04:43:17;;;;;;;12.80;3.15;;;;;;;8.92;100.00;99193.25;5008566;28;20128;-75
2023/05/25 04:45:45;;;;;;;8.95;2.90;;;;;;;9.07;100.00;99204.91;5005446;28;20642;-72
2023/05/25 04:48:11;;;;;;;11.15;3.42;;;;;;;9.14;100.00;99192.38;5005467;28;20030;-72
2023/05/25 04:50:39;;;;;;;7.70;2.90;;;;;;;9.38;100.00;99212.84;5025857;28;20033;-77
2023/05/25 04:53:05;;;;;;;13.93;3.60;;;;;;;9.39;100.00;99190.22;5011442;28;20519;-80
2023/05/25 04:55:30;;;;;;;10.88;3.17;;;;;;;9.62;100.00;99202.78;5010081;28;21233;-81
2023/05/25 04:57:55;;;;;;;15.98;3.28;;;;;;;9.70;100.00;99201.88;5008380;28;20037;-82
2023/05/25 05:00:21;;;;;;;8.50;3.17;;;;;;;9.74;100.00;99184.22;5012351;28;20026;-73
2023/05/25 05:02:46;;;;;;;7.00;2.78;;;;;;;10.08;100.00;99226.84;5004035;28;20023;-73
2023/05/25 05:05:12;;;;;;;13.68;3.33;;;;;;;10.09;100.00;99204.22;5010332;28;20026;-73
2023/05/25 05:07:37;;;;;;;10.68;3.38;;;;;;;10.28;100.00;99208.19;5013729;28;20026;-75
2023/05/25 05:10:03;;;;;;;10.48;2.95;;;;;;;10.48;100.00;99203.00;5002346;28;20113;-73
2023/05/25 05:12:28;;;;;;;12.70;3.05;;;;;;;10.64;100.00;99202.75;5008726;28;20045;-75
2023/05/25 05:14:54;;;;;;;10.80;3.38;;;;;;;10.99;100.00;99227.19;5009037;28;20021;-72
2023/05/25 05:17:20;;;;;;;17.88;4.22;;;;;;;11.03;100.00;99212.22;5010105;28;20037;-72
2023/05/25 05:19:45;;;;;;;12.15;3.03;;;;;;;11.15;100.00;99207.94;5001984;28;20030;-72
2023/05/25 05:22:12;;;;;;;12.10;3.97;;;;;;;11.44;100.00;99230.44;5010385;28;20539;-77
2023/05/25 05:24:37;;;;;;;9.52;3.08;;;;;;;11.48;100.00;99217.34;5006278;28;20025;-75
2023/05/25 05:27:04;;;;;;;12.10;3.17;;;;;;;11.85;100.00;99237.75;5007305;28;20033;-70
2023/05/25 05:29:29;;;;;;;15.30;3.70;;;;;;;11.97;100.00;99241.63;4998726;28;20041;-73
2023/05/25 05:31:54;;;;;;;12.45;3.28;;;;;;;12.11;100.00;99241.69;5012969;28;20014;-74
2023/05/25 05:34:20;;;;;;;8.80;3.03;;;;;;;12.31;100.00;99252.56;5001869;28;20450;-74
2023/05/25 05:36:46;;;;;;;9.68;3.25;;;;;;;12.41;100.00;99234.88;5012483;28;20032;-73
2023/05/25 05:39:12;;;;;;;11.25;2.70;;;;;;;12.70;100.00;99262.72;4998428;28;20026;-76
2023/05/25 05:41:37;;;;;;;7.55;3.05;;;;;;;12.66;100.00;99239.75;5000207;28;20448;-72
2023/05/25 05:44:03;;;;;;;11.82;3.92;;;;;;;12.85;100.00;99251.66;5014581;28;20056;-73
2023/05/25 05:46:28;;;;;;;14.48;3.60;;;;;;;12.92;100.00;99260.66;5012294;28;20029;-75
2023/05/25 05:48:53;;;;;;;14.10;3.58;;;;;;;13.03;100.00;99257.31;5010738;28;20212;-77
2023/05/25 05:51:18;;;;;;;13.40;3.47;;;;;;;13.32;100.00;99264.25;5007367;28;20384;-72
2023/05/25 05:53:44;;;;;;;12.52;3.38;;;;;;;13.48;100.00;99254.00;4995229;28;20113;-74
2023/05/25 05:56:16;;;;;;;12.05;3.30;;;;;;;13.63;100.00;99262.75;5010450;28;20033;-78
2023/05/25 05:58:42;;;;;;;14.10;3.30;;;;;;;13.84;100.00;99272.56;5014961;28;20073;-77
2023/05/25 06:01:07;;;;;;;11.27;3.13;;;;;;;13.88;100.00;99253.91;5014130;28;20021;-77
2023/05/25 06:03:33;;;;;;;11.63;3.08;;;;;;;13.95;100.00;99246.56;5005650;28;20387;-79
2023/05/25 06:05:59;;;;;;;13.40;3.08;;;;;;;14.10;100.00;99225.38;5000455;28;20026;-68
2023/05/25 06:08:24;;;;;;;10.25;3.33;;;;;;;14.24;100.00;99251.47;5004784;28;20066;-68
2023/05/25 06:10:50;;;;;;;12.05;3.20;;;;;;;14.82;100.00;99272.34;5013372;28;20505;-69
2023/05/25 06:13:15;;;;;;;11.82;3.10;;;;;;;14.85;100.00;99244.66;5011578;28;20440;-68
2023/05/25 06:15:40;;;;;;;11.13;3.08;;;;;;;15.36;100.00;99275.53;5008353;28;20083;-68
2023/05/25 06:18:06;;;;;;;8.80;3.10;;;;;;;15.65;100.00;99278.63;5018398;28;20029;-68
2023/05/25 06:20:31;;;;;;;14.70;3.28;;;;;;;15.72;100.00;99279.44;5007040;28;20440;-68
2023/05/25 06:22:57;;;;;;;6.95;3.13;;;;;;;16.13;100.00;99272.47;5016576;28;20108;-68
2023/05/25 06:25:22;;;;;;;14.60;3.00;;;;;;;16.36;100.00;99280.78;5003653;28;20021;-69
2023/05/25 06:27:48;;;;;;;13.23;3.47;;;;;;;16.09;100.00;99271.25;5012163;28;20484;-68
2023/05/25 06:30:13;;;;;;;6.25;3.15;;;;;;;16.24;100.00;99274.41;5004132;28;20557;-66
2023/05/25 06:32:38;;;;;;;8.40;2.70;;;;;;;16.87;100.00;99289.56;5010847;28;20488;-69
2023/05/25 06:35:04;;;;;;;12.70;3.20;;;;;;;17.48;100.00;99274.75;5007617;28;20029;-69
2023/05/25 06:37:36;;;;;;;10.77;3.78;;;;;;;19.14;92.27;99277.94;5013045;28;20448;-80
2023/05/25 06:40:03;;;;;;;7.88;2.45;;;;;;;21.55;75.30;99276.38;5001335;28;20023;-73
2023/05/25 06:42:29;;;;;;;10.82;2.88;;;;;;;23.51;63.49;99265.81;5009880;28;20025;-78
2023/05/25 06:44:54;;;;;;;8.20;2.72;;;;;;;24.56;57.20;99278.03;5028581;28;20036;-71
2023/05/25 06:47:20;;;;;;;5.75;2.40;;;;;;;25.65;54.16;99266.78;5014213;28;20084;-75
2023/05/25 06:49:45;;;;;;;8.75;2.95;;;;;;;26.38;50.03;99273.22;5016646;28;20032;-81
2023/05/25 06:52:27;;;;;;;12.85;2.50;;;;;;;27.60;48.40;99278.16;5133029;27;20414;-49
2023/05/25 06:54:53;;;;;;;11.48;3.05;;;;;;;28.41;45.84;99281.38;5101342;28;20054;-49
2023/05/25 06:57:19;;;;;;;6.05;2.58;;;;;;;27.87;45.84;99281.03;5085892;28;20035;-49
2023/05/25 06:59:44;;;;;;;7.75;2.85;;;;;;;25.59;48.42;99288.16;5112991;28;20023;-51
2023/05/25 07:02:10;;;;;;;7.88;2.65;;;;;;;23.33;52.70;99290.09;5110816;28;20149;-49
2023/05/25 07:04:36;;;;;;;11.77;3.08;;;;;;;21.85;56.48;99292.25;5086854;28;20027;-49
2023/05/25 07:07:01;;;;;;;10.95;2.80;;;;;;;21.17;59.07;99300.25;5084615;28;20387;-49
2023/05/25 07:09:26;;;;;;;8.32;3.03;;;;;;;20.11;65.18;99288.53;5089743;28;20049;-49
2023/05/25 07:11:52;;;;;;;10.32;3.15;;;;;;;19.29;69.05;99291.94;5083807;28;20808;-56
2023/05/25 07:14:17;;;;;;;9.70;3.40;;;;;;;19.13;73.66;99288.09;5090290;28;20111;-57
2023/05/25 07:16:46;;;;;;;12.13;4.35;;;;;;;18.88;75.83;99285.69;5096315;28;20019;-57
2023/05/25 07:19:11;;;;;;;9.48;3.38;;;;;;;18.49;80.93;99282.72;5100101;28;20019;-57
2023/05/25 07:21:37;;;;;;;9.52;3.70;;;;;;;18.47;83.29;99287.63;5095837;28;20046;-57
2023/05/25 07:24:03;;;;;;;17.00;4.10;;;;;;;18.32;84.56;99282.66;5094060;28;20027;-57
2023/05/25 07:26:35;;;;;;;11.15;3.58;;;;;;;18.57;84.44;99290.56;5090606;28;20038;-48
2023/05/25 07:29:01;;;;;;;15.13;3.70;;;;;;;18.55;86.80;99280.94;5087278;28;20032;-48
2023/05/25 07:31:26;;;;;;;11.95;3.72;;;;;;;18.66;93.15;99285.53;5088244;28;20046;-48
2023/05/25 07:33:54;;;;;;;11.27;3.35;;;;;;;19.06;84.14;99295.63;5089332;28;20032;-49
2023/05/25 07:36:20;;;;;;;11.63;3.50;;;;;;;19.15;87.28;99282.34;5084814;28;20154;-50
2023/05/25 07:38:46;;;;;;;12.70;3.20;;;;;;;19.59;83.13;99283.34;5109592;28;20099;-48
2023/05/25 07:41:12;;;;;;;9.98;2.95;;;;;;;19.86;80.40;99278.03;5097425;28;20115;-57
2023/05/25 07:43:39;;;;;;;11.02;3.13;;;;;;;20.64;76.95;99279.88;5085312;28;20170;-58
2023/05/25 07:46:04;;;;;;;7.65;3.03;;;;;;;21.05;73.91;99289.38;5084312;28;20376;-57
2023/05/25 07:48:30;;;;;;;11.48;3.17;;;;;;;21.69;70.50;99288.56;5090577;28;20030;-57
2023/05/25 07:50:55;;;;;;;13.57;4.05;;;;;;;23.02;65.24;99272.69;5089454;28;20047;-57
2023/05/25 07:53:21;;;;;;;9.63;3.20;;;;;;;24.13;60.82;99275.69;5088897;28;20390;-57
2023/05/25 07:55:46;;;;;;;10.20;3.55;;;;;;;25.77;55.76;99286.59;5092207;28;20023;-56
2023/05/25 07:58:11;;;;;;;6.95;2.90;;;;;;;26.71;52.12;99281.72;5094165;28;20036;-56
2023/05/25 08:00:37;;;;;;;9.32;3.13;;;;;;;27.10;50.00;99287.00;5106293;28;20026;-48
2023/05/25 08:03:02;;;;;;;7.82;2.80;;;;;;;27.46;49.49;99283.69;5080793;28;20035;-48
2023/05/25 08:05:28;;;;;;;7.47;2.80;;;;;;;29.30;45.24;99280.00;5070046;28;20066;-48
2023/05/25 08:07:53;;;;;;;8.52;2.83;;;;;;;30.22;44.31;99274.00;5094826;28;20479;-48
2023/05/25 08:10:19;;;;;;;9.43;3.30;;;;;;;32.42;40.05;99278.09;5078703;28;20386;-48
2023/05/25 08:12:44;;;;;;;7.70;2.97;;;;;;;33.43;38.28;99266.03;5068820;28;20046;-49
2023/05/25 08:15:10;;;;;;;10.45;3.38;;;;;;;32.28;38.06;99270.75;5075632;28;20032;-49
2023/05/25 08:17:35;;;;;;;8.15;3.10;;;;;;;31.23;40.15;99277.69;5078428;28;20031;-49
2023/05/25 08:20:01;;;;;;;8.02;3.25;;;;;;;27.58;43.59;99286.78;5076860;28;20035;-49
2023/05/25 08:22:26;;;;;;;9.02;2.78;;;;;;;25.81;46.72;99286.88;5081726;28;20069;-48
2023/05/25 08:24:52;;;;;;;11.43;3.47;;;;;;;24.76;49.69;99289.00;5081021;28;20031;-57
2023/05/25 08:27:17;;;;;;;8.90;3.38;;;;;;;23.15;53.10;99285.94;5076218;28;20047;-56
2023/05/25 08:29:43;;;;;;;10.80;3.92;;;;;;;22.78;55.82;99288.88;5086322;28;20027;-57
2023/05/25 08:32:08;;;;;;;9.15;3.53;;;;;;;22.80;58.46;99281.16;5085078;28;20153;-56
2023/05/25 08:34:34;;;;;;;11.35;3.97;;;;;;;22.94;58.52;99282.28;5084248;28;20119;-48
2023/05/25 08:36:59;;;;;;;8.60;3.58;;;;;;;22.39;57.95;99274.69;5072993;28;20114;-57
2023/05/25 08:39:25;;;;;;;10.75;4.00;;;;;;;21.82;59.04;99293.66;5081315;28;20031;-57
2023/05/25 08:41:51;;;;;;;10.88;4.05;;;;;;;22.07;59.85;99283.88;5088339;28;20410;-48
2023/05/25 08:44:16;;;;;;;10.63;3.65;;;;;;;22.40;60.55;99287.34;5084253;28;20490;-48
2023/05/25 08:46:44;;;;;;;9.05;3.53;;;;;;;23.16;59.54;99289.53;5072126;28;20047;-49
2023/05/25 08:49:11;;;;;;;13.25;3.67;;;;;;;23.49;59.01;99287.34;5082193;28;20459;-48
2023/05/25 08:51:41;;;;;;;7.82;3.55;;;;;;;24.45;57.10;99293.84;5073011;28;20033;-49
2023/05/25 08:54:12;;;;;;;10.32;3.03;;;;;;;25.18;56.03;99287.66;5070300;28;20118;-49
2023/05/25 08:57:01;;;;;;;9.10;3.13;;;;;;;26.43;52.65;99292.56;5070865;28;20028;-49
2023/05/25 08:59:29;;;;;;;;;;;;;;;26.37;51.46;99296.53;5072013;28;20031;-48
2023/05/25 09:02:07;;;;;;;11.35;4.20;;;;;;;29.34;48.20;99282.97;5071834;28;19912;-49
2023/05/25 09:04:33;;;;;;;12.90;3.53;;;;;;;32.43;42.81;99277.75;5093459;28;20028;-49
2023/05/25 09:06:59;;;;;;;11.80;3.50;;;;;;;30.80;42.19;99284.06;5074050;28;20031;-49
2023/05/25 09:09:25;;;;;;;9.45;3.22;;;;;;;29.76;44.40;99284.44;5089188;28;20479;-57
2023/05/25 09:11:51;;;;;;;10.05;3.20;;;;;;;29.32;43.81;99276.88;5088115;28;20019;-57
2023/05/25 09:14:18;;;;;;;8.20;3.70;;;;;;;28.96;45.33;99275.75;5078153;28;20032;-57
2023/05/25 09:16:44;;;;;;;12.50;3.72;;;;;;;29.05;45.57;99282.25;5074240;28;20031;-57
2023/05/25 09:19:10;;;;;;;14.35;3.50;;;;;;;28.82;46.06;99266.63;5080447;28;20166;-57
2023/05/25 09:21:35;;;;;;;16.58;3.90;;;;;;;27.75;46.56;99283.47;5087027;28;20119;-57
2023/05/25 09:24:01;;;;;;;16.90;3.72;;;;;;;26.74;46.76;99273.59;5068224;28;20040;-56
2023/05/25 09:26:27;;;;;;;11.30;3.45;;;;;;;27.85;45.89;99276.91;5075672;28;20174;-48
2023/05/25 09:28:52;;;;;;;10.35;3.65;;;;;;;27.19;46.60;99279.63;5089319;28;20140;-48
2023/05/25 09:31:17;;;;;;;11.88;3.45;;;;;;;28.11;46.43;99269.75;5073049;28;20024;-48
2023/05/25 09:33:44;;;;;;;9.57;3.50;;;;;;;30.13;44.39;99273.97;5075885;28;20035;-48
2023/05/25 09:36:11;;;;;;;8.27;3.45;;;;;;;32.40;40.41;99272.84;5099142;28;20062;-49
2023/05/25 09:38:39;;;;;;;10.32;3.45;;;;;;;33.76;38.56;99271.69;5085577;28;20039;-49
2023/05/25 09:41:04;;;;;;;9.63;3.47;;;;;;;32.97;39.15;99268.72;5073711;28;20103;-49
2023/05/25 09:43:31;;;;;;;10.82;2.78;;;;;;;31.79;38.92;99284.25;5062706;28;20023;-50
2023/05/25 09:45:56;;;;;;;8.23;2.88;;;;;;;33.74;38.43;99271.19;5084827;28;20106;-49
2023/05/25 09:48:23;;;;;;;12.18;3.53;;;;;;;34.12;36.76;99270.97;5072119;28;20435;-49
2023/05/25 09:50:48;;;;;;;12.52;3.40;;;;;;;33.08;36.98;99275.56;5084629;28;20600;-49
2023/05/25 09:53:13;;;;;;;12.35;3.58;;;;;;;32.22;38.05;99280.47;5075043;28;20127;-49
2023/05/25 09:55:39;;;;;;;7.82;3.00;;;;;;;31.27;38.78;99270.28;5073846;28;20494;-49
2023/05/25 09:58:04;;;;;;;9.45;3.17;;;;;;;32.17;37.95;99285.47;5063750;28;20056;-49
2023/05/25 10:00:30;;;;;;;10.90;2.85;;;;;;;31.38;38.38;99288.41;5075944;28;20024;-48
2023/05/25 10:02:56;;;;;;;14.05;3.40;;;;;;;33.93;37.61;99282.72;5090370;28;20023;-49
2023/05/25 10:05:21;;;;;;;12.60;3.67;;;;;;;35.05;36.03;99279.56;5089853;28;20031;-49
2023/05/25 10:07:49;;;;;;;11.73;3.08;;;;;;;35.91;34.66;99275.63;5087582;28;20085;-49
2023/05/25 10:10:15;;;;;;;11.20;3.28;;;;;;;36.66;34.22;99277.56;5064570;28;20368;-49
2023/05/25 10:12:42;;;;;;;7.32;2.53;;;;;;;36.91;32.94;99280.13;5075745;28;20040;-49
2023/05/25 10:15:13;;;;;;;10.67;3.07;;;;;;;36.25;32.99;99279.75;5064496;28;20028;-50
2023/05/25 10:18:00;;;;;;;10.23;3.25;;;;;;;34.42;34.77;99282.78;5087466;28;20289;-50
2023/05/25 10:20:25;;;;;;;9.10;3.60;;;;;;;32.66;36.16;99281.13;5107261;28;20406;-50
2023/05/25 10:22:58;;;;;;;10.18;3.30;;;;;;;33.03;36.00;99275.78;5078267;28;20032;-50
2023/05/25 10:25:29;;;;;;;8.68;3.00;;;;;;;33.50;36.46;99271.91;5084580;28;20024;-50
2023/05/25 10:28:02;;;;;;;9.77;3.10;;;;;;;34.18;35.79;99268.75;5076230;28;20032;-50
2023/05/25 10:30:27;;;;;;;5.43;2.60;;;;;;;34.94;33.99;99274.81;5072019;28;20028;-50
2023/05/25 10:32:56;;;;;;;7.72;2.80;;;;;;;34.96;33.86;99267.66;5083560;28;20471;-50
2023/05/25 10:35:22;;;;;;;9.35;2.88;;;;;;;35.33;32.97;99264.75;5079511;28;20027;-50
2023/05/25 10:37:51;;;;;;;10.38;3.30;;;;;;;33.47;34.41;99267.00;5083263;28;20028;-50
2023/05/25 10:40:17;;;;;;;7.38;2.75;;;;;;;33.72;34.84;99265.94;5081568;28;22030;-49
2023/05/25 10:42:44;;;;;;;6.13;3.03;;;;;;;33.32;35.22;99271.25;5073791;28;20032;-50
2023/05/25 10:45:10;;;;;;;7.30;2.80;;;;;;;35.55;33.19;99258.56;5071574;28;20016;-50
2023/05/25 10:47:37;;;;;;;6.88;2.80;;;;;;;37.41;32.61;99267.13;5075325;28;20162;-50
2023/05/25 10:50:03;;;;;;;7.17;2.60;;;;;;;36.26;31.77;99269.28;5085590;28;20059;-50
2023/05/25 10:52:30;;;;;;;9.02;3.10;;;;;;;36.47;31.61;99266.19;5101133;28;20062;-50
2023/05/25 10:55:00;;;;;;;6.20;2.38;;;;;;;36.00;32.28;99259.38;5067188;28;20775;-52
2023/05/25 10:57:26;;;;;;;6.93;2.60;;;;;;;36.75;32.27;99264.06;5076940;28;20054;-50
2023/05/25 11:00:04;;;;;;;5.25;2.65;;;;;;;36.66;32.21;99276.75;5090689;28;20016;-50
2023/05/25 11:02:31;;;;;;;9.27;2.67;;;;;;;36.35;31.54;99270.75;5073979;28;20066;-50
2023/05/25 11:05:21;;;;;;;7.18;2.55;;;;;;;36.04;32.48;99270.72;5074062;28;20027;-50
2023/05/25 11:08:00;;;;;;;6.13;2.90;;;;;;;34.85;32.71;99278.56;5087219;28;20039;-50
2023/05/25 11:10:41;;;;;;;8.48;2.80;;;;;;;35.66;32.07;99272.13;5082484;28;20031;-50
2023/05/25 11:13:36;;;;;;;12.88;3.00;;;;;;;35.48;31.82;99258.34;5070601;28;20047;-50
2023/05/25 11:16:26;;;;;;;11.90;3.00;;;;;;;33.64;33.15;99269.63;5075305;28;20512;-50
2023/05/25 11:18:57;;;;;;;7.47;2.50;;;;;;;34.08;33.67;99269.19;5090900;28;20020;-49
2023/05/25 11:21:41;;;;;;;11.27;2.75;;;;;;;35.09;33.66;99260.84;5066893;28;20028;-50
2023/05/25 11:24:12;;;;;;;12.60;3.03;;;;;;;36.79;31.84;99267.81;5065880;28;20048;-50
2023/05/25 11:26:52;;;;;;;8.02;2.65;;;;;;;37.58;30.43;99260.25;5071338;28;20020;-50
2023/05/25 11:29:20;;;;;;;8.27;3.00;;;;;;;36.09;31.41;99267.69;5089191;28;20108;-49